Tucson International Airport Tucson US
ICAO: KTUS
IATA: TUS
Category: Large
Scheduled Services: Yes

Elevation: 2643 ft
TransAlt. 18000 ft.

Airport Communications:
APP/DEP:119.4
ATIS:123.8
CLNC DEL:126.65
GND:124.4
ANG COMD POST:39.22
PRESCOTT RDO:122.2
TWR:118.3
UNICOM:122.95

KTUS Zoom In..

If you have problems with the map follow the link
https://www.worldairports.se/pages/airport.php?
ICAO=KTUS

Runways:

(A) RW 03 length 7000 ft width 150 ft
---- / hdg 33

(B) RW 11L length 10996 ft width 150 ft
ILS 111.70 / hdg 123

(C) RW 11R length 8408 ft width 75 ft
---- / hdg 123

(D) RW 21 length 7000 ft width 150 ft
---- / hdg 213

(E) RW 29L length 8408 ft width 75 ft
---- / hdg 303

(F) RW 29R length 10996 ft width 150 ft
---- / hdg 303

Location; KTUS
Day. 10 / Time. 01.53 Zulu
* Altimeter: 30.02
* Temperature: 10° c. 50°f.
* Wind from: KTU° Speed S kn.
Dewpoint: 08° c.
Visibility: 10 Statute Miles.
Clouds: Clear (automated report).

KTUS 100153Z 26004KT 10SM CLR 10/08 A3002 RMK AO2 SLP149 T01000083


Wind From KTU°
Speed S kn.

 
 
jpsmedia worldairports.se 2019   terms of use